Time;durP1;ratioP1;P1;durP2;ratioP2;P2;SDS_P1;SDS_P2;PMS_P1;PMS_P2;Temp;Humidity;BMP_temperature;BMP_pressure;BME280_temperature;BME280_humidity;BME280_pressure;Samples;Min_cycle;Max_cycle;Signal;HPM_P1;HPM_P2
2024/01/12 00:01:05;;;;;;;37.70;24.38;;;;;;;-4.51;51.16;93833.91;4997972;28;20038;-69
2024/01/12 00:03:31;;;;;;;33.40;20.75;;;;;;;-4.42;50.95;93830.00;4999591;28;20047;-69
2024/01/12 00:05:56;;;;;;;42.83;25.25;;;;;;;-4.29;50.85;93844.63;5002593;28;20466;-69
2024/01/12 00:08:22;;;;;;;34.72;20.58;;;;;;;-4.19;51.43;93844.88;5012218;28;20095;-69
2024/01/12 00:10:47;;;;;;;42.50;22.77;;;;;;;-3.95;50.07;93819.75;4996776;28;20061;-69
2024/01/12 00:13:13;;;;;;;42.17;25.60;;;;;;;-3.94;49.96;93813.53;5001399;28;20624;-69
2024/01/12 00:15:38;;;;;;;36.15;21.80;;;;;;;-4.14;49.33;93796.44;4996451;28;20467;-69
2024/01/12 00:18:04;;;;;;;39.28;24.80;;;;;;;-3.86;49.43;93827.00;4996698;28;20429;-69
2024/01/12 00:20:29;;;;;;;35.22;21.80;;;;;;;-3.83;49.50;93839.53;4994695;28;20525;-69
2024/01/12 00:22:56;;;;;;;30.20;19.75;;;;;;;-3.90;49.35;93828.44;4982516;28;21227;-69
2024/01/12 00:25:22;;;;;;;26.52;18.45;;;;;;;-3.95;48.64;93830.16;5002566;28;20048;-69
2024/01/12 00:27:48;;;;;;;26.77;16.50;;;;;;;-4.39;49.12;93826.94;5000484;28;20046;-69
2024/01/12 00:30:13;;;;;;;19.67;12.95;;;;;;;-4.16;48.51;93803.69;5006789;28;20038;-69
2024/01/12 00:32:39;;;;;;;20.17;11.00;;;;;;;-4.10;47.07;93830.56;4998061;28;20053;-69
2024/01/12 00:35:05;;;;;;;14.68;9.00;;;;;;;-4.49;46.65;93829.31;5002691;28;20385;-69
2024/01/12 00:37:30;;;;;;;17.90;9.65;;;;;;;-4.35;46.92;93835.91;5004994;28;20038;-69
2024/01/12 00:39:56;;;;;;;14.43;8.52;;;;;;;-4.33;46.09;93820.88;4997453;28;20131;-69
2024/01/12 00:42:21;;;;;;;9.75;7.75;;;;;;;-4.16;44.27;93828.84;5003277;28;20065;-69
2024/01/12 00:44:46;;;;;;;8.90;6.93;;;;;;;-4.22;42.04;93811.56;4995911;28;20022;-69
2024/01/12 00:47:12;;;;;;;11.82;7.57;;;;;;;-4.28;41.28;93810.63;5004801;28;20044;-69
2024/01/12 00:49:37;;;;;;;12.32;7.20;;;;;;;-4.24;41.83;93800.59;4996002;28;20105;-69
2024/01/12 00:52:03;;;;;;;15.57;8.98;;;;;;;-4.56;43.27;93813.81;5016773;28;20098;-69
2024/01/12 00:54:28;;;;;;;15.85;8.70;;;;;;;-4.39;43.63;93824.34;5006583;28;20034;-69
2024/01/12 00:56:54;;;;;;;12.93;8.20;;;;;;;-4.49;44.10;93826.72;5000954;28;20109;-69
2024/01/12 00:59:19;;;;;;;13.35;8.30;;;;;;;-4.51;43.28;93811.34;5002568;28;20046;-69
2024/01/12 01:01:45;;;;;;;10.35;7.30;;;;;;;-4.33;43.02;93827.88;4997157;28;20035;-69
2024/01/12 01:04:11;;;;;;;10.88;7.25;;;;;;;-4.29;42.94;93813.47;4995331;28;20525;-68
2024/01/12 01:06:36;;;;;;;10.55;7.32;;;;;;;-4.03;41.74;93815.66;4993449;28;20042;-69
2024/01/12 01:09:01;;;;;;;8.88;6.53;;;;;;;-4.17;41.26;93816.88;4994959;28;20027;-69
2024/01/12 01:11:27;;;;;;;12.52;8.75;;;;;;;-3.98;41.41;93830.59;5003668;28;20474;-69
2024/01/12 01:13:52;;;;;;;13.10;7.68;;;;;;;-4.33;40.77;93781.16;5000824;28;20514;-69
2024/01/12 01:16:20;;;;;;;12.65;7.60;;;;;;;-4.18;41.88;93815.28;4996243;28;20493;-69
2024/01/12 01:18:45;;;;;;;10.13;6.68;;;;;;;-3.87;40.73;93806.44;4999848;28;20104;-68
2024/01/12 01:21:11;;;;;;;7.18;5.30;;;;;;;-3.79;38.75;93788.69;4996561;28;20041;-69
2024/01/12 01:23:36;;;;;;;9.88;5.63;;;;;;;-4.16;39.43;93761.34;5006136;28;20447;-69
2024/01/12 01:26:02;;;;;;;12.40;6.93;;;;;;;-4.21;40.19;93794.97;5001669;28;20075;-69
2024/01/12 01:28:27;;;;;;;11.73;7.57;;;;;;;-4.17;41.11;93790.91;5007298;28;20391;-69
2024/01/12 01:30:53;;;;;;;9.93;5.93;;;;;;;-4.17;40.86;93796.09;4998965;28;20031;-69
2024/01/12 01:33:19;;;;;;;8.73;5.90;;;;;;;-4.38;40.92;93781.03;4999644;28;20478;-69
2024/01/12 01:35:44;;;;;;;13.23;7.28;;;;;;;-4.30;40.72;93775.53;4999270;28;20033;-69
2024/01/12 01:38:10;;;;;;;9.40;6.60;;;;;;;-4.44;40.72;93770.50;5005110;28;20068;-69
2024/01/12 01:40:35;;;;;;;8.63;6.63;;;;;;;-4.46;41.07;93761.38;4995495;28;20042;-68
2024/01/12 01:43:08;;;;;;;9.57;6.30;;;;;;;-4.53;40.50;93756.25;5002410;28;20031;-69
2024/01/12 01:45:36;;;;;;;10.02;6.97;;;;;;;-4.37;39.79;93760.03;4996517;28;20048;-68
2024/01/12 01:48:02;;;;;;;11.32;6.72;;;;;;;-4.62;39.77;93746.41;5001232;28;20090;-69
2024/01/12 01:50:27;;;;;;;10.15;6.43;;;;;;;-4.90;40.32;93754.78;4995171;28;20497;-69
2024/01/12 01:52:56;;;;;;;9.13;6.15;;;;;;;-5.03;39.40;93753.16;4995314;28;20502;-68
2024/01/12 01:55:22;;;;;;;9.90;6.35;;;;;;;-4.84;40.24;93759.09;5001637;28;20121;-69
2024/01/12 01:57:49;;;;;;;8.98;6.15;;;;;;;-4.91;40.34;93751.41;4996600;28;20054;-68
2024/01/12 02:00:15;;;;;;;9.73;6.45;;;;;;;-5.13;40.40;93731.34;5003214;28;20034;-68
2024/01/12 02:02:41;;;;;;;11.32;6.95;;;;;;;-4.88;40.47;93752.78;5004587;28;20018;-68
2024/01/12 02:05:08;;;;;;;9.02;6.70;;;;;;;-4.95;40.37;93754.66;4998459;28;20100;-69
2024/01/12 02:07:34;;;;;;;8.18;6.07;;;;;;;-5.01;40.50;93735.56;4991730;28;20379;-68
2024/01/12 02:10:00;;;;;;;11.77;6.28;;;;;;;-5.12;41.09;93740.69;4996884;28;20046;-68
2024/01/12 02:12:26;;;;;;;10.32;6.03;;;;;;;-4.84;40.95;93743.53;4999155;28;20100;-68
2024/01/12 02:14:52;;;;;;;11.55;7.00;;;;;;;-4.91;41.54;93742.81;4994292;28;20450;-69
2024/01/12 02:17:17;;;;;;;10.05;6.45;;;;;;;-4.92;41.00;93720.47;5010229;28;20048;-71
2024/01/12 02:19:43;;;;;;;9.10;6.72;;;;;;;-4.81;40.95;93732.72;5000025;28;20515;-68
2024/01/12 02:22:08;;;;;;;9.88;6.57;;;;;;;-4.87;41.42;93729.19;5006196;28;20041;-69
2024/01/12 02:24:33;;;;;;;12.80;7.68;;;;;;;-5.25;41.86;93710.53;5002500;28;20042;-69
2024/01/12 02:26:59;;;;;;;11.95;7.35;;;;;;;-5.09;42.35;93742.84;5001239;28;20480;-69
2024/01/12 02:29:24;;;;;;;10.27;6.57;;;;;;;-4.94;42.08;93766.63;5002716;28;20402;-69
2024/01/12 02:31:50;;;;;;;12.05;7.05;;;;;;;-4.77;42.00;93762.38;5001819;28;20394;-69
2024/01/12 02:34:16;;;;;;;14.18;7.53;;;;;;;-4.55;41.53;93760.91;4998945;28;20041;-69
2024/01/12 02:36:41;;;;;;;12.27;7.38;;;;;;;-4.79;41.78;93755.84;4999781;28;20034;-69
2024/01/12 02:39:07;;;;;;;13.32;7.28;;;;;;;-4.64;41.17;93754.44;4999974;28;20470;-68
2024/01/12 02:41:32;;;;;;;13.38;7.25;;;;;;;-4.57;41.79;93764.72;4997665;28;20071;-68
2024/01/12 02:43:57;;;;;;;11.38;6.45;;;;;;;-4.57;41.28;93768.09;5004172;28;20038;-68
2024/01/12 02:46:24;;;;;;;10.25;7.20;;;;;;;-4.57;41.39;93749.94;4997657;28;20042;-68
2024/01/12 02:48:49;;;;;;;12.95;8.52;;;;;;;-4.31;41.73;93758.34;5005169;28;20038;-69
2024/01/12 02:51:15;;;;;;;16.20;10.30;;;;;;;-4.90;42.35;93706.28;5002210;28;20030;-68
2024/01/12 02:53:40;;;;;;;15.43;9.27;;;;;;;-4.33;42.48;93762.97;5001201;28;20417;-69
2024/01/12 02:56:05;;;;;;;15.93;9.98;;;;;;;-4.34;42.36;93754.38;5012163;28;20386;-69
2024/01/12 02:58:31;;;;;;;14.23;9.43;;;;;;;-4.33;42.70;93760.38;5019388;28;20172;-68
2024/01/12 03:00:56;;;;;;;15.82;9.05;;;;;;;-4.14;42.83;93770.47;4996949;28;20042;-69
2024/01/12 03:03:22;;;;;;;14.10;10.55;;;;;;;-4.16;42.76;93743.16;5008333;28;20030;-69
2024/01/12 03:05:50;;;;;;;19.30;11.75;;;;;;;-4.26;43.39;93748.09;4995874;28;20026;-69
2024/01/12 03:08:15;;;;;;;20.33;12.20;;;;;;;-4.40;44.08;93762.28;5000044;28;20090;-69
2024/01/12 03:10:41;;;;;;;16.05;10.57;;;;;;;-4.11;43.62;93764.03;4987903;28;20038;-69
2024/01/12 03:13:06;;;;;;;19.38;11.85;;;;;;;-4.12;43.83;93746.88;4984130;28;20038;-69
2024/01/12 03:15:32;;;;;;;15.52;9.70;;;;;;;-4.14;43.05;93754.09;5000274;28;20592;-69
2024/01/12 03:17:57;;;;;;;17.88;10.23;;;;;;;-4.21;43.16;93759.41;5005468;28;20069;-69
2024/01/12 03:20:23;;;;;;;49.67;11.93;;;;;;;-4.23;43.62;93752.84;5000516;28;20030;-69
2024/01/12 03:22:48;;;;;;;16.63;9.90;;;;;;;-4.28;43.03;93743.13;5000264;28;20487;-69
2024/01/12 03:25:14;;;;;;;17.63;14.75;;;;;;;-4.36;42.54;93737.47;5001718;28;20042;-68
2024/01/12 03:27:39;;;;;;;13.50;9.05;;;;;;;-4.36;42.49;93747.84;5002776;28;20046;-69
2024/01/12 03:30:05;;;;;;;16.02;9.60;;;;;;;-4.50;42.17;93729.88;5003864;28;20022;-69
2024/01/12 03:32:30;;;;;;;15.73;10.00;;;;;;;-4.47;42.71;93746.81;5001566;28;20034;-69
2024/01/12 03:34:56;;;;;;;13.68;9.65;;;;;;;-4.36;43.11;93753.84;5000529;28;20618;-68
2024/01/12 03:37:22;;;;;;;12.52;8.68;;;;;;;-4.29;42.85;93748.56;4997227;28;20671;-69
2024/01/12 03:39:47;;;;;;;14.68;8.90;;;;;;;-4.34;43.07;93748.44;4994766;28;20509;-69
2024/01/12 03:42:13;;;;;;;18.60;9.00;;;;;;;-4.55;43.83;93749.72;4997695;28;20029;-69
2024/01/12 03:44:39;;;;;;;12.65;8.85;;;;;;;-4.71;44.01;93748.53;5003760;28;20110;-68
2024/01/12 03:47:04;;;;;;;15.70;9.27;;;;;;;-4.55;43.66;93745.31;4996779;28;20022;-69
2024/01/12 03:49:30;;;;;;;14.00;8.57;;;;;;;-4.36;43.44;93745.25;4999511;28;20069;-69
2024/01/12 03:51:55;;;;;;;13.85;8.55;;;;;;;-4.69;44.10;93735.34;5003170;28;20697;-69
2024/01/12 03:54:24;;;;;;;14.52;8.90;;;;;;;-4.50;44.05;93731.69;5020263;28;20033;-68
2024/01/12 03:56:50;;;;;;;15.82;8.63;;;;;;;-4.40;43.77;93723.34;5003506;28;20126;-68
2024/01/12 03:59:16;;;;;;;14.15;9.15;;;;;;;-4.31;43.73;93748.78;5001506;28;20518;-69
2024/01/12 04:01:45;;;;;;;15.35;8.68;;;;;;;-4.37;43.63;93748.84;5016826;28;20085;-69
2024/01/12 04:04:11;;;;;;;16.45;10.05;;;;;;;-4.35;43.31;93746.84;4997121;28;20040;-69
2024/01/12 04:06:37;;;;;;;20.52;12.57;;;;;;;-4.58;43.86;93722.41;4999812;28;20329;-68
2024/01/12 04:09:02;;;;;;;18.05;11.48;;;;;;;-4.69;44.08;93710.19;4999616;28;20034;-69
2024/01/12 04:11:27;;;;;;;14.48;9.77;;;;;;;-4.48;43.66;93717.44;4996789;28;20030;-69
2024/01/12 04:13:53;;;;;;;15.07;9.65;;;;;;;-4.37;43.93;93738.47;5002020;28;20406;-69
2024/01/12 04:16:19;;;;;;;13.80;9.02;;;;;;;-4.43;43.80;93740.94;5002912;28;20039;-68
2024/01/12 04:18:44;;;;;;;12.60;8.90;;;;;;;-4.50;43.97;93739.47;4997571;28;20045;-68
2024/01/12 04:21:10;;;;;;;11.82;8.02;;;;;;;-4.47;44.62;93745.00;5003210;28;20394;-69
2024/01/12 04:23:35;;;;;;;15.88;8.57;;;;;;;-4.37;44.67;93743.66;5007476;28;20072;-69
2024/01/12 04:26:00;;;;;;;15.23;9.27;;;;;;;-4.29;44.01;93738.16;4994385;28;20047;-68
2024/01/12 04:28:26;;;;;;;19.30;10.10;;;;;;;-4.16;44.13;93745.75;4998689;28;20133;-69
2024/01/12 04:30:51;;;;;;;14.98;9.18;;;;;;;-4.11;44.01;93749.25;5002895;28;20062;-69
2024/01/12 04:33:16;;;;;;;13.65;7.53;;;;;;;-4.28;43.15;93731.94;4981755;28;20393;-68
2024/01/12 04:35:42;;;;;;;14.43;8.95;;;;;;;-4.28;43.44;93731.94;5003637;28;20470;-69
2024/01/12 04:38:09;;;;;;;16.40;8.25;;;;;;;-4.18;44.08;93747.75;5000788;28;20405;-69
2024/01/12 04:40:35;;;;;;;17.63;9.65;;;;;;;-4.26;44.48;93735.13;4999089;28;20054;-69
2024/01/12 04:43:00;;;;;;;15.73;10.30;;;;;;;-4.22;45.05;93731.06;5001595;28;20072;-69
2024/01/12 04:45:25;;;;;;;15.73;10.32;;;;;;;-3.97;45.13;93739.44;4998930;28;20491;-68
2024/01/12 04:47:51;;;;;;;19.08;11.50;;;;;;;-3.81;45.19;93732.78;4997454;28;20048;-68
2024/01/12 04:50:16;;;;;;;24.52;12.02;;;;;;;-3.69;44.56;93731.75;5018759;28;20075;-69
2024/01/12 04:52:42;;;;;;;16.42;9.65;;;;;;;-4.07;44.54;93703.63;5001550;28;20554;-69
2024/01/12 04:55:08;;;;;;;20.77;11.55;;;;;;;-4.10;45.04;93718.88;5009547;28;20046;-68
2024/01/12 04:57:33;;;;;;;21.70;11.30;;;;;;;-3.81;45.05;93754.38;4998483;28;20034;-69
2024/01/12 04:59:58;;;;;;;20.75;10.93;;;;;;;-3.74;45.03;93743.84;5008218;28;20398;-69
2024/01/12 05:02:24;;;;;;;23.75;11.43;;;;;;;-3.90;45.21;93740.09;5010832;28;20045;-68
2024/01/12 05:04:49;;;;;;;18.20;11.18;;;;;;;-3.66;45.53;93762.47;5013869;28;20482;-68
2024/01/12 05:07:15;;;;;;;17.55;9.50;;;;;;;-3.64;44.24;93754.47;5002311;28;20055;-69
2024/01/12 05:09:40;;;;;;;19.13;10.40;;;;;;;-3.57;44.21;93770.75;5000683;28;20042;-69
2024/01/12 05:12:06;;;;;;;18.67;13.13;;;;;;;-3.97;44.21;93729.06;4996341;28;20021;-69
2024/01/12 05:14:32;;;;;;;19.73;12.80;;;;;;;-4.10;44.63;93766.41;5004173;28;20591;-69
2024/01/12 05:16:58;;;;;;;21.35;13.65;;;;;;;-4.25;45.71;93778.25;5005841;28;20188;-69
2024/01/12 05:19:23;;;;;;;30.25;17.65;;;;;;;-4.30;45.71;93754.75;5003612;28;20129;-69
2024/01/12 05:21:49;;;;;;;27.73;15.55;;;;;;;-4.14;45.53;93780.84;4998329;28;20066;-69
2024/01/12 05:24:15;;;;;;;20.83;12.55;;;;;;;-3.94;45.31;93780.56;4997280;28;20030;-68
2024/01/12 05:26:42;;;;;;;21.30;13.40;;;;;;;-3.91;45.06;93780.13;5003194;28;20034;-69
2024/01/12 05:29:08;;;;;;;24.13;14.25;;;;;;;-3.88;45.12;93795.25;5002769;28;20038;-68
2024/01/12 05:31:34;;;;;;;26.92;14.40;;;;;;;-4.11;45.28;93777.03;4995360;28;20075;-68
2024/01/12 05:33:59;;;;;;;25.83;14.30;;;;;;;-3.98;45.60;93800.19;5000098;28;20548;-68
2024/01/12 05:36:25;;;;;;;25.77;15.73;;;;;;;-4.14;46.09;93800.84;4996528;28;20034;-68
2024/01/12 05:38:50;;;;;;;26.75;17.08;;;;;;;-4.11;46.05;93790.03;5000217;28;20033;-69
2024/01/12 05:41:15;;;;;;;29.15;15.68;;;;;;;-4.10;45.97;93789.00;4996999;28;20049;-68
2024/01/12 05:43:41;;;;;;;29.13;16.83;;;;;;;-4.27;46.45;93799.25;5003912;28;20536;-68
2024/01/12 05:46:07;;;;;;;43.75;22.75;;;;;;;-4.09;46.44;93806.94;4995216;28;20387;-69
2024/01/12 05:48:33;;;;;;;33.92;17.75;;;;;;;-4.26;46.18;93800.03;4999930;28;20051;-68
2024/01/12 05:51:00;;;;;;;28.02;17.45;;;;;;;-4.10;46.63;93807.19;5003436;28;20033;-68
2024/01/12 05:53:25;;;;;;;32.05;19.10;;;;;;;-4.25;47.17;93793.84;5003369;28;20067;-68
2024/01/12 05:55:52;;;;;;;62.70;33.38;;;;;;;-4.29;47.56;93810.88;4990675;28;20076;-69
2024/01/12 05:58:19;;;;;;;41.13;21.70;;;;;;;-4.47;47.76;93812.50;5006764;28;20072;-68
2024/01/12 06:00:45;;;;;;;47.53;26.10;;;;;;;-4.69;48.12;93782.06;5001916;28;20045;-69
2024/01/12 06:03:10;;;;;;;40.28;22.48;;;;;;;-4.44;47.79;93793.88;5004689;28;20038;-69
2024/01/12 06:05:35;;;;;;;33.38;19.70;;;;;;;-4.32;47.21;93787.94;5009599;28;20388;-69
2024/01/12 06:08:01;;;;;;;39.97;22.67;;;;;;;-4.13;46.63;93781.66;5002746;28;20072;-68
2024/01/12 06:10:26;;;;;;;46.28;22.48;;;;;;;-4.19;46.03;93798.13;5015072;28;20045;-68
2024/01/12 06:12:53;;;;;;;16.60;11.18;;;;;;;-4.18;43.15;93802.31;5008478;28;20030;-69
2024/01/12 06:15:19;;;;;;;19.77;11.98;;;;;;;-4.15;42.77;93800.06;5001670;28;20120;-67
2024/01/12 06:17:44;;;;;;;11.73;7.95;;;;;;;-4.48;42.38;93784.94;5012642;28;20102;-69
2024/01/12 06:20:10;;;;;;;23.02;11.43;;;;;;;-4.75;42.73;93782.94;5014876;28;20062;-68
2024/01/12 06:22:36;;;;;;;25.90;11.60;;;;;;;-4.57;43.02;93809.63;5009630;28;20098;-69
2024/01/12 06:25:01;;;;;;;22.33;11.50;;;;;;;-4.52;42.81;93801.97;5007076;28;20510;-69
2024/01/12 06:27:26;;;;;;;15.68;10.30;;;;;;;-4.88;42.89;93794.28;5006636;28;20542;-69
2024/01/12 06:29:52;;;;;;;18.77;9.68;;;;;;;-4.81;42.60;93815.72;5022025;28;20055;-68
2024/01/12 06:32:17;;;;;;;14.48;8.82;;;;;;;-5.04;43.24;93790.47;5009722;28;20043;-69
2024/01/12 06:34:42;;;;;;;16.25;9.60;;;;;;;-4.85;44.02;93830.16;5002593;28;20557;-69
2024/01/12 06:37:08;;;;;;;19.17;11.52;;;;;;;-4.73;44.48;93827.63;5016456;28;20514;-68
2024/01/12 06:39:33;;;;;;;18.15;11.07;;;;;;;-4.79;44.47;93805.94;5004769;28;20422;-68
2024/01/12 06:41:59;;;;;;;21.75;11.70;;;;;;;-5.12;45.30;93808.09;5004664;28;20030;-69
2024/01/12 06:44:24;;;;;;;22.60;12.07;;;;;;;-5.01;45.38;93835.91;5013077;28;20124;-66
2024/01/12 06:46:49;;;;;;;20.38;11.30;;;;;;;-5.01;44.30;93831.53;5006762;28;20046;-69
2024/01/12 06:49:15;;;;;;;18.05;10.18;;;;;;;-5.02;45.02;93827.34;5005128;28;20073;-68
2024/01/12 06:51:40;;;;;;;22.60;11.75;;;;;;;-4.93;44.51;93833.06;5008934;28;20038;-68
2024/01/12 06:54:06;;;;;;;15.15;9.18;;;;;;;-5.07;44.08;93832.38;5012792;28;20033;-68
2024/01/12 06:56:32;;;;;;;14.77;9.65;;;;;;;-5.13;44.69;93822.91;5013833;28;20386;-68
2024/01/12 06:58:58;;;;;;;18.58;11.05;;;;;;;-4.93;45.01;93833.06;4999910;28;20049;-69
2024/01/12 07:01:24;;;;;;;18.83;10.80;;;;;;;-5.19;45.88;93838.50;5020213;28;20038;-69
2024/01/12 07:03:51;;;;;;;23.50;13.57;;;;;;;-4.84;45.59;93836.94;5007711;28;20065;-69
2024/01/12 07:06:17;;;;;;;19.33;11.02;;;;;;;-5.10;45.28;93816.47;5007721;28;20041;-68
2024/01/12 07:08:42;;;;;;;16.95;10.15;;;;;;;-5.11;45.81;93846.00;5008031;28;20053;-69
2024/01/12 07:11:08;;;;;;;22.80;12.80;;;;;;;-5.16;46.05;93825.91;5016468;28;20068;-68
2024/01/12 07:13:33;;;;;;;21.80;12.32;;;;;;;-5.03;46.19;93828.38;5006609;28;20042;-68
2024/01/12 07:15:59;;;;;;;18.88;10.77;;;;;;;-5.17;45.72;93826.13;4999121;28;20060;-68
2024/01/12 07:18:24;;;;;;;20.05;10.70;;;;;;;-5.28;46.04;93838.00;5010699;28;20034;-68
2024/01/12 07:20:49;;;;;;;18.08;11.18;;;;;;;-5.40;46.36;93843.09;4999632;28;20034;-68
2024/01/12 07:23:15;;;;;;;17.65;10.73;;;;;;;-5.23;46.42;93847.72;5009858;28;20053;-68
2024/01/12 07:25:40;;;;;;;19.75;11.13;;;;;;;-4.97;45.83;93847.44;5001068;28;20477;-69
2024/01/12 07:28:06;;;;;;;20.50;10.88;;;;;;;-5.04;46.00;93868.28;5013668;28;20087;-69
2024/01/12 07:30:32;;;;;;;21.50;11.95;;;;;;;-5.15;46.19;93865.59;5000601;28;20037;-69
2024/01/12 07:32:58;;;;;;;22.67;12.30;;;;;;;-5.16;46.37;93874.38;5000971;28;20023;-68
2024/01/12 07:35:24;;;;;;;23.88;11.85;;;;;;;-5.07;46.42;93870.47;4999948;28;20117;-68
2024/01/12 07:37:52;;;;;;;19.83;12.10;;;;;;;-5.00;46.36;93863.44;5007706;28;20117;-68
2024/01/12 07:40:18;;;;;;;23.17;13.23;;;;;;;-5.24;47.11;93862.50;4997890;28;20035;-69
2024/01/12 07:42:43;;;;;;;26.45;14.75;;;;;;;-5.09;46.94;93869.94;4999331;28;20521;-68
2024/01/12 07:45:11;;;;;;;19.83;13.25;;;;;;;-5.08;47.05;93879.28;5003356;28;20482;-68
2024/01/12 07:47:36;;;;;;;28.55;16.38;;;;;;;-5.24;47.58;93872.88;5026983;28;20044;-69
2024/01/12 07:50:01;;;;;;;31.73;15.80;;;;;;;-4.99;47.81;93890.97;5009142;28;20643;-68
2024/01/12 07:52:27;;;;;;;30.58;16.40;;;;;;;-4.97;48.19;93879.34;5002184;28;20040;-68
2024/01/12 07:54:52;;;;;;;23.67;12.18;;;;;;;-4.79;47.59;93912.31;5013325;28;20034;-69
2024/01/12 07:57:17;;;;;;;22.83;13.10;;;;;;;-4.73;46.91;93908.06;5002469;28;20041;-69
2024/01/12 07:59:43;;;;;;;26.55;13.13;;;;;;;-4.69;47.18;93912.59;4998762;28;20042;-68
2024/01/12 08:02:08;;;;;;;22.70;12.10;;;;;;;-4.44;47.06;93918.47;5002967;28;20398;-68
2024/01/12 08:04:37;;;;;;;23.50;14.18;;;;;;;-4.32;47.65;93920.34;5013861;28;20038;-69
2024/01/12 08:07:03;;;;;;;23.80;13.63;;;;;;;-4.51;46.87;93915.19;5001048;28;20042;-69
2024/01/12 08:09:28;;;;;;;24.73;13.82;;;;;;;-4.52;47.69;93918.00;5005734;28;20025;-69
2024/01/12 08:11:53;;;;;;;26.10;14.00;;;;;;;-4.36;47.55;93932.19;5003343;28;20026;-69
2024/01/12 08:14:19;;;;;;;24.90;13.35;;;;;;;-4.51;47.80;93924.78;5005327;28;20042;-68
2024/01/12 08:16:44;;;;;;;20.73;13.38;;;;;;;-4.48;47.83;93940.69;5007358;28;20126;-69
2024/01/12 08:19:09;;;;;;;29.25;16.75;;;;;;;-4.62;48.48;93928.88;5020999;28;20538;-68
2024/01/12 08:21:35;;;;;;;34.53;17.38;;;;;;;-4.68;49.01;93929.75;5005798;28;20036;-69
2024/01/12 08:24:00;;;;;;;30.27;15.18;;;;;;;-4.61;49.08;93940.84;4988860;28;20049;-69
2024/01/12 08:26:25;;;;;;;27.70;14.88;;;;;;;-4.56;49.21;93943.59;4995791;28;20065;-69
2024/01/12 08:28:54;;;;;;;34.75;17.38;;;;;;;-4.63;49.36;93942.88;5003682;28;20407;-69
2024/01/12 08:31:20;;;;;;;32.28;17.63;;;;;;;-4.63;49.91;93924.69;5000921;28;20041;-69
2024/01/12 08:33:48;;;;;;;43.45;17.85;;;;;;;-4.51;50.38;93938.56;5014595;28;20060;-68
2024/01/12 08:36:14;;;;;;;44.47;21.85;;;;;;;-4.56;50.49;93938.41;4997788;28;20109;-67
2024/01/12 08:38:41;;;;;;;31.70;16.90;;;;;;;-4.63;50.55;93942.88;4999194;28;20439;-69
2024/01/12 08:41:06;;;;;;;35.95;17.95;;;;;;;-4.59;50.47;93954.44;5000016;28;20094;-68
2024/01/12 08:43:32;;;;;;;32.13;17.80;;;;;;;-4.53;51.24;93958.72;4999771;28;20670;-68
2024/01/12 08:45:57;;;;;;;38.67;20.30;;;;;;;-4.68;51.00;93918.56;5003391;28;20113;-68
2024/01/12 08:48:22;;;;;;;37.10;19.83;;;;;;;-4.62;51.36;93949.66;4991558;28;20026;-68
2024/01/12 08:50:48;;;;;;;40.42;18.25;;;;;;;-4.76;51.79;93963.78;4973108;28;20437;-68
2024/01/12 08:53:13;;;;;;;34.08;18.00;;;;;;;-4.84;52.36;93956.28;4982393;28;20081;-68
2024/01/12 08:55:38;;;;;;;40.78;20.50;;;;;;;-4.93;53.00;93957.56;4980532;28;20425;-69
2024/01/12 08:58:04;;;;;;;38.97;21.10;;;;;;;-4.99;53.50;93976.56;4977750;28;20030;-68
2024/01/12 09:00:29;;;;;;;43.90;20.45;;;;;;;-5.08;53.76;93965.69;4987666;28;20037;-68
2024/01/12 09:02:55;;;;;;;39.03;19.73;;;;;;;-5.22;54.39;93955.63;4992760;28;20414;-68
2024/01/12 09:05:21;;;;;;;44.13;21.45;;;;;;;-5.02;54.23;93970.00;4975300;28;20042;-68
2024/01/12 09:07:47;;;;;;;53.60;22.35;;;;;;;-4.93;54.04;93962.75;4967062;28;20030;-71
2024/01/12 09:10:14;;;;;;;38.15;21.33;;;;;;;-4.72;53.69;93979.69;4979340;28;20041;-68
2024/01/12 09:12:39;;;;;;;40.33;20.75;;;;;;;-4.84;54.07;93979.63;4980530;28;20410;-68
2024/01/12 09:15:07;;;;;;;36.10;20.38;;;;;;;-5.06;54.18;93978.41;4980183;28;20030;-68
2024/01/12 09:17:33;;;;;;;44.78;22.83;;;;;;;-5.20;55.06;93982.13;4982429;28;20061;-69
2024/01/12 09:19:59;;;;;;;45.22;20.20;;;;;;;-5.13;55.60;94003.63;4980853;28;20039;-68
2024/01/12 09:22:24;;;;;;;46.58;23.90;;;;;;;-4.94;55.03;93992.28;4987181;28;20592;-69
2024/01/12 09:24:50;;;;;;;48.97;22.73;;;;;;;-5.19;55.26;93988.91;4982431;28;20041;-68
2024/01/12 09:27:15;;;;;;;44.97;22.02;;;;;;;-5.03;55.20;93980.59;4992622;28;20509;-67
2024/01/12 09:29:41;;;;;;;44.08;22.88;;;;;;;-5.07;55.09;93972.44;5007769;28;20008;-68
2024/01/12 09:32:06;;;;;;;38.55;23.00;;;;;;;-5.07;55.10;93966.44;5002458;28;20470;-68
2024/01/12 09:34:32;;;;;;;49.00;23.30;;;;;;;-4.93;55.41;93984.28;5009506;28;20133;-68
2024/01/12 09:36:57;;;;;;;41.13;22.20;;;;;;;-5.00;55.95;93967.19;5010909;28;20078;-68
2024/01/12 09:39:22;;;;;;;41.22;23.77;;;;;;;-5.07;56.06;93956.06;4998072;28;20038;-68
2024/01/12 09:41:49;;;;;;;49.90;23.77;;;;;;;-4.87;56.11;93973.03;5018246;28;20032;-69
2024/01/12 09:44:19;;;;;;;42.55;22.67;;;;;;;-4.76;55.36;93962.97;5014842;28;20063;-68
2024/01/12 09:46:56;;;;;;;46.22;23.58;;;;;;;-4.89;55.83;93959.50;5007779;28;20027;-68
2024/01/12 09:49:23;;;;;;;47.25;25.13;;;;;;;-4.97;56.26;93954.59;5003993;28;20574;-68
2024/01/12 09:51:49;;;;;;;44.47;23.63;;;;;;;-5.03;56.14;93949.47;5002929;28;20073;-68
2024/01/12 09:54:14;;;;;;;42.55;20.77;;;;;;;-4.96;56.18;93955.38;5000187;28;20042;-68
2024/01/12 09:56:40;;;;;;;48.95;24.20;;;;;;;-5.00;56.74;93959.41;4997121;28;20443;-69
2024/01/12 09:59:06;;;;;;;45.58;22.90;;;;;;;-4.95;56.72;93964.75;5009345;28;20046;-68
2024/01/12 10:01:32;;;;;;;47.75;24.58;;;;;;;-4.72;56.06;93969.31;5004519;28;20451;-69
2024/01/12 10:03:58;;;;;;;42.67;22.25;;;;;;;-4.74;55.74;93961.75;4982583;28;20037;-68
2024/01/12 10:06:25;;;;;;;49.60;23.92;;;;;;;-4.65;55.62;93972.66;5002447;28;20018;-67
2024/01/12 10:08:50;;;;;;;39.50;21.23;;;;;;;-4.83;55.84;93957.06;4981236;28;20670;-68
2024/01/12 10:11:16;;;;;;;43.00;22.15;;;;;;;-4.76;56.25;93968.97;4996994;28;20097;-68
2024/01/12 10:13:41;;;;;;;45.40;24.83;;;;;;;-4.68;56.28;93966.06;5005287;28;20121;-68
2024/01/12 10:16:09;;;;;;;44.20;25.05;;;;;;;-4.88;56.81;93970.69;5004552;28;20066;-69
2024/01/12 10:18:35;;;;;;;44.10;23.13;;;;;;;-4.93;56.76;93967.94;4997046;28;20038;-68
2024/01/12 10:21:00;;;;;;;44.53;23.52;;;;;;;-4.70;56.39;93957.72;4995802;28;20114;-68
2024/01/12 10:23:26;;;;;;;48.15;24.05;;;;;;;-4.75;56.29;93962.75;5004862;28;20046;-68
2024/01/12 10:25:56;;;;;;;43.85;23.77;;;;;;;-4.89;56.66;93951.72;5006478;28;20041;-68
2024/01/12 10:28:22;;;;;;;47.55;24.52;;;;;;;-4.88;56.63;93962.91;5008042;28;20038;-68
2024/01/12 10:30:48;;;;;;;43.88;24.02;;;;;;;-5.01;57.57;93952.63;5001445;28;20057;-68
2024/01/12 10:33:13;;;;;;;61.70;25.75;;;;;;;-4.95;56.95;93949.97;5004297;28;20022;-68
2024/01/12 10:35:39;;;;;;;47.58;24.85;;;;;;;-4.95;57.18;93959.56;5004893;28;20042;-69
2024/01/12 10:38:08;;;;;;;49.63;22.92;;;;;;;-4.57;56.93;93974.94;5013629;28;20117;-69
2024/01/12 10:40:33;;;;;;;48.00;22.73;;;;;;;-4.57;56.35;93951.59;5003712;28;20128;-69
2024/01/12 10:43:03;;;;;;;47.20;23.13;;;;;;;-4.62;55.97;93970.41;4990480;28;20026;-68
2024/01/12 10:45:29;;;;;;;45.78;23.77;;;;;;;-4.56;56.21;93966.97;4997362;28;20122;-68
2024/01/12 10:48:04;;;;;;;44.47;23.55;;;;;;;-4.54;57.25;93977.13;5001625;28;20112;-68
2024/01/12 10:50:42;;;;;;;45.97;22.73;;;;;;;-4.52;57.10;93982.88;5007623;28;20034;-68
2024/01/12 10:53:30;;;;;;;53.30;24.85;;;;;;;-4.34;56.65;93980.28;5000283;28;20088;-69
2024/01/12 10:55:59;;;;;;;45.47;24.38;;;;;;;-4.40;56.21;93981.16;5008898;28;20038;-68
2024/01/12 10:58:25;;;;;;;45.15;22.67;;;;;;;-4.50;56.78;93949.72;5002970;28;20418;-68
2024/01/12 11:00:52;;;;;;;46.08;22.88;;;;;;;-4.29;56.41;93979.66;4996453;28;20040;-69
2024/01/12 11:03:18;;;;;;;48.60;25.02;;;;;;;-4.27;56.43;93964.63;4998588;28;20084;-68
2024/01/12 11:05:43;;;;;;;46.80;23.25;;;;;;;-4.01;56.19;93972.91;5003105;28;20030;-68
2024/01/12 11:08:11;;;;;;;43.33;22.17;;;;;;;-3.80;55.11;93971.63;4997469;28;20026;-68
2024/01/12 11:10:46;;;;;;;43.20;23.98;;;;;;;-3.86;55.78;93980.31;5007162;28;20233;-68
2024/01/12 11:13:16;;;;;;;54.40;26.80;;;;;;;-3.80;56.08;93984.63;5003097;28;20027;-69